Stations météo

réclame
Mon MeteoGroup
Formigueres, France (7737): Température de l'air & dewpoint: 10.07.2019 04:00:00 - 16.07.2019 04:00:00 (CEST)Formigueres, France (7737): Vitesse du vent & gusts: 10.07.2019 04:00:00 - 16.07.2019 04:00:00 (CEST)Formigueres, France (7737): Direction du vent: 10.07.2019 04:00:00 - 16.07.2019 04:00:00 (CEST)Formigueres, France (7737): Quantités de précipitations: 10.07.2019 04:00:00 - 16.07.2019 04:00:00 (CEST)
Date & Time tt [°C] td [°C] ff [km/h] ff [knt] fx [km/h] fx [knt] dd rr [mm]
16.07.2019 04:00:00 - - - - - - - -
16.07.2019 03:00:00 5,8 2,3 13 7 22 12 WSW 0,0
16.07.2019 02:00:00 6,5 2,6 11 6 26 14 W -
16.07.2019 01:00:00 7,3 2,8 15 8 22 12 WSW 0,0
16.07.2019 00:00:00 10,4 4,3 9 5 29 16 NNW 0,0
15.07.2019 23:00:00 11,8 4,5 16 9 37 20 N 0,0
15.07.2019 22:00:00 11,9 4,6 13 7 44 24 NNW 0,0
15.07.2019 21:00:00 12,8 5,0 26 14 54 29 N 0,0
15.07.2019 20:00:00 16,1 5,7 28 15 59 32 NNE -
15.07.2019 19:00:00 17,4 6,6 35 19 59 32 N 0,0
15.07.2019 18:00:00 18,5 7,3 29 16 54 29 NNE 0,0
15.07.2019 17:00:00 19,5 7,6 28 15 54 29 N 0,0
15.07.2019 16:00:00 20,4 6,0 21 11 55 30 N 0,0
15.07.2019 15:00:00 19,8 5,4 15 8 48 26 N 0,0
15.07.2019 14:00:00 18,5 5,3 22 12 57 31 N -
15.07.2019 13:00:00 18,3 4,1 18 10 61 33 N 0,0
15.07.2019 12:00:00 16,1 3,5 28 15 70 38 N 0,0
15.07.2019 11:00:00 15,5 4,2 16 9 50 27 W 0,0
15.07.2019 10:00:00 14,2 5,0 16 9 52 28 NW 0,0
15.07.2019 09:00:00 14,2 5,8 11 6 42 23 N 0,0
15.07.2019 08:00:00 12,5 6,3 11 6 34 18 NNW -
15.07.2019 07:00:00 10,2 6,2 9 5 34 18 NNE 0,0
15.07.2019 06:00:00 10,4 6,9 11 6 37 20 NNW 0,0
15.07.2019 05:00:00 11,0 7,1 24 13 44 24 N 0,0
15.07.2019 04:00:00 10,7 7,6 9 5 29 16 NE 0,0
15.07.2019 03:00:00 11,0 6,5 8 4 31 17 NE 0,0
15.07.2019 02:00:00 11,7 7,6 13 7 34 18 N -
15.07.2019 01:00:00 11,6 7,7 16 9 34 18 N 0,0
15.07.2019 00:00:00 11,7 7,6 11 6 28 15 NW 0,0
14.07.2019 23:00:00 12,1 8,0 13 7 39 21 N 0,0
14.07.2019 22:00:00 13,4 8,5 21 11 42 23 N 0,0
14.07.2019 21:00:00 14,1 9,5 15 8 39 21 N 0,0
14.07.2019 20:00:00 15,1 10,5 26 14 52 28 N -
14.07.2019 19:00:00 16,2 11,1 24 13 44 24 N 0,0
14.07.2019 18:00:00 16,6 12,3 16 9 50 27 N 0,0
14.07.2019 17:00:00 17,3 12,8 26 14 52 28 NNE 0,0
14.07.2019 16:00:00 17,3 13,2 18 10 41 22 NNE 0,0
14.07.2019 15:00:00 17,6 13,3 21 11 41 22 NNE 0,0
14.07.2019 14:00:00 17,3 12,8 24 13 42 23 NNE -
14.07.2019 13:00:00 17,7 12,6 22 12 41 22 NNE 0,0
14.07.2019 12:00:00 17,7 12,8 21 11 37 20 NNE 0,0
14.07.2019 11:00:00 16,9 12,8 11 6 31 17 NNE 0,0
14.07.2019 10:00:00 16,0 12,2 18 10 31 17 NNE 0,0
14.07.2019 09:00:00 14,4 11,5 16 9 29 16 N 0,0
14.07.2019 08:00:00 13,7 11,9 9 5 24 13 N -
14.07.2019 07:00:00 13,0 11,2 5 3 11 6 NNE 0,0
14.07.2019 06:00:00 13,7 11,7 4 2 18 10 ESE 0,0
14.07.2019 05:00:00 14,2 12,9 4 2 16 9 N 0,0
14.07.2019 04:00:00 14,5 13,0 9 5 22 12 N 0,0
14.07.2019 03:00:00 13,8 13,3 4 2 9 5 SSE 0,0
14.07.2019 02:00:00 12,6 12,3 4 2 11 6 SSW -
14.07.2019 01:00:00 13,2 12,6 4 2 13 7 W 0,0
14.07.2019 00:00:00 13,8 13,0 4 2 11 6 W 0,2
13.07.2019 23:00:00 14,1 13,1 2 1 8 4 SW 0,0
13.07.2019 22:00:00 14,6 13,1 2 1 8 4 SW 0,0
13.07.2019 21:00:00 16,0 14,0 4 2 21 11 N 0,2
13.07.2019 20:00:00 17,7 14,2 9 5 31 17 NNE -
13.07.2019 19:00:00 19,2 15,1 18 10 37 20 NNE 0,0
13.07.2019 18:00:00 21,3 16,0 16 9 34 18 NNE 0,0
13.07.2019 17:00:00 20,9 16,1 21 11 42 23 NNE 0,0
13.07.2019 16:00:00 22,3 16,3 22 12 41 22 NNE 0,0
13.07.2019 15:00:00 21,9 16,2 21 11 35 19 NNE 0,0
13.07.2019 14:00:00 21,6 16,8 21 11 39 21 NNE -
13.07.2019 13:00:00 20,3 15,3 16 9 39 21 NNE 0,0
13.07.2019 12:00:00 19,7 14,5 18 10 34 18 NNE 0,0
13.07.2019 11:00:00 18,7 13,5 15 8 35 19 NNE 0,0
13.07.2019 10:00:00 17,0 12,1 16 9 26 14 NNE 0,0
13.07.2019 09:00:00 15,2 11,2 9 5 21 11 NE 0,0
13.07.2019 08:00:00 12,8 10,5 0 0 9 5 N -
13.07.2019 07:00:00 8,6 8,0 2 1 11 6 NNE 0,0
13.07.2019 06:00:00 8,9 8,3 8 4 13 7 WSW 0,0
13.07.2019 05:00:00 9,6 7,9 8 4 21 11 WSW 0,0
13.07.2019 04:00:00 10,1 8,5 13 7 18 10 W 0,0
13.07.2019 03:00:00 10,7 9,1 11 6 16 9 WSW 0,0
13.07.2019 02:00:00 11,5 9,4 11 6 18 10 WSW -
13.07.2019 01:00:00 12,6 9,2 4 2 15 8 WSW 0,0
13.07.2019 00:00:00 12,7 10,4 8 4 11 6 WSW 0,0
12.07.2019 23:00:00 14,1 10,5 8 4 22 12 WNW 0,0
12.07.2019 22:00:00 15,0 10,4 8 4 34 18 NNW 0,0
12.07.2019 21:00:00 16,7 11,6 16 9 37 20 N 0,0
12.07.2019 20:00:00 19,7 12,5 24 13 41 22 NNE -
12.07.2019 19:00:00 21,2 13,4 18 10 35 19 NNE 0,0
12.07.2019 18:00:00 21,9 13,8 22 12 41 22 NNE 0,0
12.07.2019 17:00:00 22,1 15,0 26 14 46 25 N 0,0
12.07.2019 16:00:00 23,2 15,8 18 10 54 29 NNE 0,0
12.07.2019 15:00:00 23,6 16,1 26 14 54 29 NNE 0,0
12.07.2019 14:00:00 25,2 11,4 18 10 48 26 NNW -
12.07.2019 13:00:00 24,6 14,4 16 9 52 28 N 0,0
12.07.2019 12:00:00 23,1 14,1 18 10 42 23 N 0,0
12.07.2019 11:00:00 21,7 15,1 21 11 50 27 NNE 0,0
12.07.2019 10:00:00 18,7 14,4 9 5 37 20 NE 0,0
12.07.2019 09:00:00 17,9 13,6 5 3 15 8 SSE 0,0
12.07.2019 08:00:00 13,2 10,6 2 1 15 8 SSE -
12.07.2019 07:00:00 10,3 7,9 9 5 18 10 WSW 0,0
12.07.2019 06:00:00 10,1 7,3 11 6 21 11 SW 0,0
12.07.2019 05:00:00 10,6 8,7 5 3 21 11 SW 0,0
12.07.2019 04:00:00 11,5 10,1 11 6 18 10 WSW 0,2
12.07.2019 03:00:00 10,5 9,1 5 3 18 10 SW 0,0
12.07.2019 02:00:00 11,8 10,9 8 4 13 7 W -
12.07.2019 01:00:00 12,8 11,5 8 4 16 9 W 0,0
12.07.2019 00:00:00 13,8 12,0 9 5 15 8 WSW 0,0
11.07.2019 23:00:00 14,9 12,6 5 3 16 9 WNW 0,0
11.07.2019 22:00:00 15,8 13,1 9 5 26 14 N 0,0
11.07.2019 21:00:00 17,0 13,5 15 8 28 15 N 0,0
11.07.2019 20:00:00 18,0 14,3 15 8 28 15 NNE -
11.07.2019 19:00:00 19,2 14,9 18 10 34 18 NNE 0,0
11.07.2019 18:00:00 21,2 15,7 18 10 35 19 NNE 0,0
11.07.2019 17:00:00 20,6 15,6 18 10 35 19 NNE 0,0
11.07.2019 16:00:00 22,5 16,8 22 12 39 21 NNE 0,0
11.07.2019 15:00:00 22,6 16,8 21 11 41 22 NNE 0,0
11.07.2019 14:00:00 22,2 16,0 21 11 41 22 NNE -
11.07.2019 13:00:00 21,7 15,3 22 12 39 21 NNE 0,0
11.07.2019 12:00:00 21,5 15,3 21 11 37 20 NNE 0,0
11.07.2019 11:00:00 22,6 14,4 9 5 18 10 NNE 0,0
11.07.2019 10:00:00 21,0 14,6 2 1 15 8 E 0,0
11.07.2019 09:00:00 18,4 14,3 4 2 9 5 NE 0,0
11.07.2019 08:00:00 14,4 11,9 5 3 22 12 WNW -
11.07.2019 07:00:00 10,5 9,3 13 7 22 12 WSW 0,0
11.07.2019 06:00:00 10,7 9,3 13 7 22 12 W 0,0
11.07.2019 05:00:00 10,8 9,9 11 6 21 11 WSW 0,2
11.07.2019 04:00:00 10,7 9,8 11 6 18 10 WSW 0,0
11.07.2019 03:00:00 10,7 9,8 8 4 18 10 W 0,0
11.07.2019 02:00:00 10,9 9,8 11 6 18 10 WSW -
11.07.2019 01:00:00 11,6 10,5 11 6 16 9 W 0,0
11.07.2019 00:00:00 12,5 11,2 11 6 15 8 WSW 0,0
10.07.2019 23:00:00 12,9 11,6 8 4 22 12 S 0,0
10.07.2019 22:00:00 14,0 12,2 11 6 31 17 N 0,0
10.07.2019 21:00:00 15,1 12,6 16 9 39 21 N 0,0
10.07.2019 20:00:00 17,7 13,2 21 11 41 22 NNE -
10.07.2019 19:00:00 19,2 13,6 24 13 42 23 NNE 0,0
10.07.2019 18:00:00 20,0 13,9 26 14 41 22 NNE 0,0
10.07.2019 17:00:00 20,9 14,5 22 12 44 24 NNE 0,0
10.07.2019 16:00:00 20,9 14,5 21 11 39 21 NNE 0,0
10.07.2019 15:00:00 19,9 13,8 22 12 44 24 N 0,0
10.07.2019 14:00:00 20,1 14,0 21 11 42 23 NNE -
10.07.2019 13:00:00 19,9 13,6 21 11 48 26 NNE 0,2
10.07.2019 12:00:00 19,3 12,8 22 12 42 23 NNE 0,0
10.07.2019 11:00:00 18,3 12,5 22 12 44 24 NNE 0,0
10.07.2019 10:00:00 17,5 12,0 21 11 35 19 NNE 0,0
10.07.2019 09:00:00 16,0 12,4 8 4 22 12 N 0,0
10.07.2019 08:00:00 13,7 11,4 8 4 18 10 N -
10.07.2019 07:00:00 12,2 10,8 5 3 24 13 NE 0,0
10.07.2019 06:00:00 12,3 10,7 11 6 22 12 N 0,0
10.07.2019 05:00:00 12,2 10,9 8 4 22 12 NW 0,0
10.07.2019 04:00:00 11,8 10,7 8 4 15 8 NNW 0,0

tt = Température de l'air
td = dewpoint
ff = Vitesse du vent
fx = gusts
dd = Direction du vent
rr = Quantités de précipitations

stations d'obs. à proximité